TAF LFKB
AMD LFKB 082142Z 0821/0921 28005KT 9999 FEW040 SCT080 TX13/0912Z TN06/0903Z TEMPO 0821/0903 24015G25KT RA SCT026TCU BECMG 0915/0917 30015KT=
METAR LFKB
LFKB 082200Z AUTO 24009KT 9999 -RA FEW038/// BKN048/// BKN060/// ///TCU 09/04 Q1001 TEMPO 24015G25KT RA=
LFKB 082130Z AUTO 25012G24KT 9999 -RA FEW038 BKN048 BKN058 09/04 Q1000 NOSIG=
LFKB 082100Z AUTO 23006KT 180V280 9999 FEW047 SCT072 BKN098 11/04 Q1000 NOSIG=
LFKB 082030Z AUTO 09003KT 030V150 9999 FEW045 BKN210 09/05 Q0999 TEMPO 24015G25KT 4500 TSRA BECMG FEW035TCU BKN040=
LFKB 082000Z AUTO 27004KT 230V300 9999 FEW096 SCT150 BKN200 09/05 Q0999 TEMPO 24015G25KT 4500 TSRA FEW030CB BKN050=
WC LFKB
WS LFKB
WV LFKB